createdAt,value
2019-06-26T00:08:36.514Z,26.73
2019-06-26T00:17:33.161Z,26.53
2019-06-26T00:20:19.259Z,26.56
2019-06-26T00:23:49.869Z,26.53
2019-06-26T00:27:10.260Z,26.36
2019-06-26T00:30:13.832Z,26.23
2019-06-26T00:33:04.895Z,26.23
2019-06-26T00:35:52.655Z,26.08
2019-06-26T00:45:39.619Z,25.93
2019-06-26T00:48:23.055Z,25.93
2019-06-26T00:51:16.893Z,25.82
2019-06-26T00:54:47.136Z,25.87
2019-06-26T00:57:37.485Z,25.83
2019-06-26T01:00:46.971Z,25.83
2019-06-26T01:04:13.525Z,25.79
2019-06-26T01:10:40.272Z,25.61
2019-06-26T01:13:33.836Z,25.54
2019-06-26T01:19:45.394Z,25.50
2019-06-26T01:23:43.255Z,25.46
2019-06-26T01:26:39.960Z,25.50
2019-06-26T01:29:19.414Z,25.40
2019-06-26T01:32:12.457Z,25.33
2019-06-26T01:38:44.103Z,25.28
2019-06-26T01:45:01.803Z,25.18
2019-06-26T01:48:10.397Z,25.02
2019-06-26T01:55:05.044Z,24.96
2019-06-26T01:57:44.987Z,25.00
2019-06-26T02:07:59.597Z,25.02
2019-06-26T02:10:58.489Z,24.95
2019-06-26T02:14:03.497Z,24.95
2019-06-26T02:17:28.858Z,24.86
2019-06-26T02:21:27.821Z,24.92
2019-06-26T02:23:15.265Z,24.84
2019-06-26T02:29:23.588Z,24.86
2019-06-26T02:32:20.124Z,24.85
2019-06-26T02:34:51.993Z,24.84
2019-06-26T02:37:54.056Z,24.78
2019-06-26T02:40:46.495Z,24.78
2019-06-26T02:43:56.282Z,24.81
2019-06-26T02:50:03.290Z,24.66
2019-06-26T02:53:35.828Z,24.67
2019-06-26T02:55:53.163Z,24.64
2019-06-26T02:59:05.480Z,24.61
2019-06-26T03:09:39.370Z,24.49
2019-06-26T03:12:27.893Z,24.27
2019-06-26T03:15:18.987Z,24.27
2019-06-26T03:22:56.070Z,24.01
2019-06-26T03:25:57.046Z,23.98
2019-06-26T03:29:03.623Z,23.96
2019-06-26T03:32:35.942Z,23.96
2019-06-26T03:35:23.002Z,23.95
2019-06-26T03:41:44.658Z,23.97
2019-06-26T03:44:42.567Z,23.93
2019-06-26T03:47:45.826Z,24.00
2019-06-26T04:01:31.392Z,24.09
2019-06-26T04:04:31.595Z,24.09
2019-06-26T04:07:05.424Z,24.14
2019-06-26T04:15:41.527Z,24.24
2019-06-26T04:17:20.729Z,24.29
2019-06-26T04:34:15.279Z,24.39
2019-06-26T04:37:16.300Z,24.51
2019-06-26T05:03:33.821Z,24.48
2019-06-26T05:35:38.229Z,24.69
2019-06-26T11:46:45.815Z,30.98
2019-06-26T13:30:59.280Z,31.09
2019-06-26T13:52:55.187Z,31.58
2019-06-26T15:08:47.706Z,31.33
2019-06-26T19:54:05.163Z,24.11
2019-06-26T21:27:53.184Z,22.19
2019-06-26T21:30:22.578Z,22.55
2019-06-26T21:32:51.992Z,22.18
2019-06-26T21:35:21.513Z,22.13
2019-06-26T21:37:51.186Z,22.13
2019-06-26T21:40:20.702Z,22.03
2019-06-26T21:42:50.225Z,21.91
2019-06-26T21:45:20.715Z,21.90
2019-06-26T21:47:50.192Z,21.78
2019-06-26T21:50:37.066Z,21.89
2019-06-26T21:53:06.815Z,21.89
2019-06-26T21:55:36.263Z,21.57
2019-06-26T21:58:14.813Z,21.57
2019-06-26T22:00:44.785Z,21.47
2019-06-26T22:03:15.138Z,21.41
2019-06-26T22:05:45.238Z,21.34
2019-06-26T22:08:15.529Z,21.37
2019-06-26T22:10:45.706Z,21.18
2019-06-26T22:13:15.818Z,21.18
2019-06-26T22:15:50.090Z,21.27
2019-06-26T22:18:20.431Z,21.24
2019-06-26T22:20:50.517Z,21.15
2019-06-26T22:23:20.696Z,21.02
2019-06-26T22:25:51.546Z,21.03
2019-06-26T22:28:21.764Z,20.98
2019-06-26T22:30:51.769Z,20.98
2019-06-26T22:33:22.092Z,20.75
2019-06-26T22:35:54.533Z,20.74
2019-06-26T22:38:25.713Z,20.72
2019-06-26T22:40:55.832Z,20.61
2019-06-26T22:43:25.841Z,20.54
2019-06-26T22:45:55.764Z,20.47
2019-06-26T22:48:26.124Z,20.49
2019-06-26T22:50:55.878Z,20.28
2019-06-26T22:53:26.223Z,20.28
2019-06-26T22:56:06.948Z,20.36
2019-06-26T22:58:28.000Z,20.41
2019-06-26T23:00:57.915Z,20.30
2019-06-26T23:03:28.104Z,20.26
2019-06-26T23:05:58.226Z,20.11
2019-06-26T23:08:28.177Z,20.11
2019-06-26T23:10:58.546Z,20.14
2019-06-26T23:13:28.510Z,20.14
2019-06-26T23:15:58.818Z,19.89
2019-06-26T23:18:28.652Z,19.83
2019-06-26T23:20:59.147Z,19.83
2019-06-26T23:23:29.252Z,19.85
2019-06-26T23:25:59.403Z,19.93
2019-06-26T23:28:29.512Z,19.77
2019-06-26T23:30:59.087Z,19.68
2019-06-26T23:33:28.661Z,19.68
2019-06-26T23:35:58.271Z,19.73
2019-06-26T23:38:27.774Z,19.68
2019-06-26T23:43:21.513Z,19.68
2019-06-26T23:45:51.073Z,20.01
2019-06-26T23:48:20.685Z,20.01
2019-06-26T23:50:50.722Z,19.66
2019-06-26T23:53:20.397Z,19.40
2019-06-26T23:55:49.983Z,19.23
2019-06-26T23:58:19.589Z,19.23
